Milpitas, CA (95035)

7:56 PM PDT on September 14, 2014 (GMT -0700)
Berryessa | Change Station
CLOSE
Current Station
Personal Weather Station
Location: San Jose, CA
Elevation: 175 ft
Nearby Weather Stations

Elev 175 ft 37.41 °N, 121.85 °W | Updated 11 minutes ago

Clear
Clear
73.4 °F
Feels Like 75 °F
N
3.8
Wind Variable Wind from NW
Gusts 5.4 mph

Today
High -- | Low -- °F
--% Chance of Precip.
Yesterday
High -- | Low -- °F
Precip. -- in
6:48 AM 7:16 PM
Waning Gibbous, 60% visible
Pressure 29.79 in
Visibility 10.0 miles
Clouds Few 20000 ft
Heat Index 75 °F
Dew Point 64 °F
Humidity 72%
Rainfall 0.00 in
Snow Depth 0 in , 1 in , 0 in
UV 0 out of 12
Pollen 6.20 out of 12
PM2.5 Good
Flu Activity Not available.
METAR KSJC 150153Z 30009KT 10SM FEW200 23/12 A2979 RMK AO2 SLP088 T02280117

More Conditions Fewer Conditions

Pressure 29.79 in
Visibility 10.0 miles
Clouds Few 20000 ft
Heat Index 75 °F
Dew Point 64 °F
Humidity 72%
Rainfall 0.00 in
Snow Depth 0 in , 1 in , 0 in
UV 0 out of 12
Pollen 6.20 out of 12
PM2.5 Good
Flu Activity Not available.
METAR KSJC 150153Z 30009KT 10SM FEW200 23/12 A2979 RMK AO2 SLP088 T02280117

More Conditions Fewer Conditions

10-Day Weather Forecast

Almanac

Astronomy

Sep. 14, 2014 Rise Set
Actual Time 6:48 AM PDT 7:16 PM PDT
Civil Twilight 6:22 AM PDT 7:42 PM PDT
Nautical Twilight 5:51 AM PDT 8:13 PM PDT
Astronomical Twilight 5:20 AM PDT 8:44 PM PDT
Moon 11:20 PM PDT (9/14) 12:52 PM PDT (9/14)
Length of Visible Light 13h 20m
Length of Day
12h 27m
Tomorrow will be 2m 22s shorter.
Waning Gibbous, 60% of the Moon is Illuminated
Today
Waning Gibbous
Sep 15
Last Quarter
Sep 24
New
Oct 1
First Quarter
Oct 8
Full

Today's Extremes

State Highs State Lows

Community

WunderPhotos

Upload Photos

1,753,385 photos uploaded!

Nearby

Air Quality

  Air Quality AQ Index Pollutant
Yesterday Good
OZONE
Yesterday Good
PM2.5
Current Good
PM2.5
Sunday Good
OZONE
Monday Good
OZONE
Tuesday Good
OZONE
Wednesday Good
OZONE
Thursday Good
OZONE
Friday Good
OZONE

Snow Depth

Station Depth Elevation
Spratt Creek 0 in 6200 ft
Summit Meadow 1 in 9122 ft
Leavitt Meadows 0 in 7200 ft
Hagan's Meadow 0 in 8000 ft
CSS Lab 1 in 6900 ft

Earthquake Activity

City Distance Mag. Time & Date
Cobb, California 108 miles 2.8 11:07 AM PDT
2014-09-14
Ridgemark, California 61 miles 2.6 12:44 PM PDT
2014-09-12
Gonzales, California 66 miles 2.6 11:50 AM PDT
2014-09-11
Minimum magnitude displayed is 2.5.

Coastal Water Temperatures

Place Temperature
No Stations Reporting

Nearby Weather Stations